createdAt,value
2024-01-16T00:04:11.605Z,9.40
2024-01-16T00:19:16.241Z,8.30
2024-01-16T00:34:20.727Z,7.90
2024-01-16T00:49:25.256Z,9.00
2024-01-16T01:04:29.661Z,9.30
2024-01-16T01:19:34.218Z,9.30
2024-01-16T01:34:39.535Z,9.30
2024-01-16T01:49:44.306Z,9.00
2024-01-16T02:04:49.061Z,7.80
2024-01-16T02:19:53.484Z,8.80
2024-01-16T02:34:57.931Z,8.50
2024-01-16T02:50:02.694Z,8.90
2024-01-16T03:05:07.882Z,9.00
2024-01-16T03:20:14.016Z,9.00
2024-01-16T03:35:18.515Z,9.10
2024-01-16T03:50:23.001Z,8.90
2024-01-16T04:05:27.610Z,8.40
2024-01-16T04:20:32.109Z,8.60
2024-01-16T04:35:36.594Z,8.80
2024-01-16T04:50:41.102Z,8.40
2024-01-16T05:05:45.827Z,8.70
2024-01-16T05:20:50.409Z,8.60
2024-01-16T05:35:54.937Z,8.60
2024-01-16T05:50:59.455Z,8.10
2024-01-16T06:06:03.994Z,6.50
2024-01-16T06:21:09.217Z,6.10
2024-01-16T06:36:13.646Z,7.40
2024-01-16T06:51:19.166Z,6.20
2024-01-16T07:06:23.750Z,6.60
2024-01-16T07:21:28.968Z,6.50
2024-01-16T07:36:33.895Z,6.40
2024-01-16T07:51:38.328Z,7.40
2024-01-16T08:06:42.822Z,7.20
2024-01-16T08:21:47.234Z,7.30
2024-01-16T08:36:51.923Z,6.90
2024-01-16T08:51:56.294Z,5.90
2024-01-16T09:07:00.797Z,7.90
2024-01-16T09:22:05.824Z,8.40
2024-01-16T09:37:10.341Z,7.70
2024-01-16T09:52:14.736Z,7.00
2024-01-16T10:07:21.999Z,7.90
2024-01-16T10:22:27.810Z,8.20
2024-01-16T10:37:33.220Z,7.90
2024-01-16T10:52:43.013Z,8.30
2024-01-16T11:07:48.715Z,8.60
2024-01-16T11:22:56.398Z,9.40
2024-01-16T11:38:07.084Z,9.80
2024-01-16T11:53:11.592Z,10.00
2024-01-16T12:08:23.177Z,9.60
2024-01-16T12:23:27.842Z,8.60
2024-01-16T12:38:32.356Z,8.50
2024-01-16T12:53:40.707Z,8.70
2024-01-16T13:08:45.307Z,9.70
2024-01-16T13:23:49.752Z,7.90
2024-01-16T13:38:54.654Z,9.70
2024-01-16T13:53:59.320Z,9.00
2024-01-16T14:09:04.176Z,10.10
2024-01-16T14:24:08.871Z,9.30
2024-01-16T14:39:14.547Z,10.40
2024-01-16T14:54:19.239Z,8.50
2024-01-16T15:09:23.739Z,10.20
2024-01-16T15:24:29.478Z,10.30
2024-01-16T15:39:33.942Z,10.20
2024-01-16T15:54:38.463Z,10.20
2024-01-16T16:09:43.296Z,9.80
2024-01-16T16:24:47.947Z,9.90
2024-01-16T16:39:52.437Z,10.00
2024-01-16T16:54:57.100Z,9.50
2024-01-16T17:10:01.565Z,9.60
2024-01-16T17:25:07.159Z,9.80
2024-01-16T17:40:14.362Z,9.20
2024-01-16T17:55:20.608Z,9.40
2024-01-16T18:10:26.217Z,9.40
2024-01-16T18:25:30.610Z,9.20
2024-01-16T18:40:34.959Z,8.90
2024-01-16T18:55:39.395Z,9.10
2024-01-16T19:10:43.959Z,8.90
2024-01-16T19:25:48.725Z,9.10
2024-01-16T19:40:53.336Z,8.70
2024-01-16T19:56:00.069Z,8.70
2024-01-16T20:11:05.124Z,8.70
2024-01-16T20:26:09.672Z,9.00
2024-01-16T20:41:14.590Z,8.90
2024-01-16T20:56:19.463Z,8.30
2024-01-16T21:11:24.540Z,8.60
2024-01-16T21:26:29.203Z,8.80
2024-01-16T21:41:33.688Z,8.60
2024-01-16T21:56:38.982Z,8.60
2024-01-16T22:11:43.532Z,8.90
2024-01-16T22:26:48.070Z,8.50
2024-01-16T22:41:52.571Z,8.90
2024-01-16T22:56:57.231Z,9.00
2024-01-16T23:12:01.999Z,9.30
2024-01-16T23:27:07.387Z,8.90
2024-01-16T23:42:16.129Z,8.90
2024-01-16T23:57:20.487Z,9.00
